createdAt,value
2018-07-17T00:00:33.369Z,99.90
2018-07-17T00:05:36.638Z,99.90
2018-07-17T00:10:39.913Z,99.90
2018-07-17T00:15:43.165Z,99.90
2018-07-17T00:20:46.700Z,99.90
2018-07-17T00:25:49.983Z,99.90
2018-07-17T00:30:53.247Z,99.90
2018-07-17T00:35:56.532Z,99.90
2018-07-17T00:41:00.806Z,99.90
2018-07-17T00:46:04.064Z,99.90
2018-07-17T00:51:07.350Z,99.90
2018-07-17T00:56:10.650Z,99.90
2018-07-17T01:01:19.218Z,99.90
2018-07-17T01:16:39.523Z,99.90
2018-07-17T01:21:42.815Z,99.90
2018-07-17T01:26:46.084Z,99.90
2018-07-17T01:31:49.340Z,99.90
2018-07-17T01:36:52.836Z,99.90
2018-07-17T01:41:56.114Z,99.90
2018-07-17T01:46:59.430Z,99.90
2018-07-17T01:52:02.690Z,99.90
2018-07-17T01:57:05.958Z,99.90
2018-07-17T02:02:09.234Z,99.90
2018-07-17T02:07:12.517Z,99.90
2018-07-17T02:17:18.795Z,99.90
2018-07-17T02:22:22.068Z,99.90
2018-07-17T02:27:25.324Z,99.90
2018-07-17T02:32:28.593Z,99.90
2018-07-17T02:37:31.889Z,99.90
2018-07-17T02:42:35.145Z,99.90
2018-07-17T02:47:38.418Z,99.90
2018-07-17T02:52:41.717Z,99.90
2018-07-17T02:57:45.001Z,99.90
2018-07-17T03:02:48.262Z,99.90
2018-07-17T03:07:51.547Z,99.90
2018-07-17T03:12:54.821Z,99.90
2018-07-17T03:17:58.100Z,99.90
2018-07-17T03:23:01.450Z,99.90
2018-07-17T03:28:04.720Z,99.90
2018-07-17T03:33:08.327Z,99.90
2018-07-17T03:38:11.584Z,99.90
2018-07-17T03:43:14.854Z,99.90
2018-07-17T03:48:18.108Z,99.90
2018-07-17T03:53:21.369Z,99.90
2018-07-17T03:58:24.646Z,99.90
2018-07-17T04:08:30.917Z,99.90
2018-07-17T04:13:34.184Z,99.90
2018-07-17T04:18:37.463Z,99.90
2018-07-17T04:23:40.829Z,99.90
2018-07-17T04:28:44.100Z,99.90
2018-07-17T04:38:50.411Z,99.90
2018-07-17T04:43:53.680Z,99.90
2018-07-17T04:48:56.948Z,99.90
2018-07-17T04:54:00.218Z,99.90
2018-07-17T04:59:03.501Z,99.90
2018-07-17T05:04:06.769Z,99.90
2018-07-17T05:09:10.525Z,99.90
2018-07-17T05:14:13.797Z,99.90
2018-07-17T05:19:17.072Z,99.90
2018-07-17T05:24:20.454Z,99.90
2018-07-17T05:29:23.717Z,99.90
2018-07-17T05:34:27.052Z,99.90
2018-07-17T05:39:30.320Z,99.90
2018-07-17T05:44:33.673Z,99.90
2018-07-17T05:54:39.953Z,99.90
2018-07-17T05:59:43.216Z,99.90
2018-07-17T06:04:46.512Z,99.90
2018-07-17T06:09:49.793Z,99.90
2018-07-17T06:14:53.084Z,99.90
2018-07-17T06:19:56.374Z,99.90
2018-07-17T06:24:59.655Z,99.90
2018-07-17T06:30:02.947Z,99.90
2018-07-17T06:35:06.237Z,99.20
2018-07-17T06:40:09.486Z,98.00
2018-07-17T06:50:15.846Z,97.10
2018-07-17T06:55:19.059Z,97.10
2018-07-17T07:00:22.318Z,95.20
2018-07-17T07:05:25.604Z,93.40
2018-07-17T07:10:28.987Z,93.60
2018-07-17T07:15:32.628Z,91.30
2018-07-17T07:20:36.805Z,91.10
2018-07-17T07:45:55.721Z,83.70
2018-07-17T07:50:59.972Z,84.30
2018-07-17T07:56:03.487Z,80.00
2018-07-17T08:06:10.103Z,76.10
2018-07-17T08:11:13.948Z,78.00
2018-07-17T08:16:18.123Z,77.20
2018-07-17T08:21:21.660Z,73.90
2018-07-17T08:26:27.936Z,72.30
2018-07-17T08:31:31.863Z,69.80
2018-07-17T08:36:36.272Z,68.90
2018-07-17T08:41:39.529Z,62.70
2018-07-17T08:46:42.785Z,61.60
2018-07-17T08:51:46.031Z,60.30
2018-07-17T09:01:52.298Z,55.90
2018-07-17T09:06:55.589Z,55.40
2018-07-17T09:11:58.859Z,56.40
2018-07-17T09:17:02.113Z,57.00
2018-07-17T09:22:06.490Z,55.00
2018-07-17T09:27:09.748Z,54.80
2018-07-17T09:32:16.192Z,53.40
2018-07-17T09:37:19.485Z,54.90
2018-07-17T09:42:23.268Z,53.80
2018-07-17T09:47:27.523Z,55.40
2018-07-17T09:52:30.858Z,53.70
2018-07-17T09:57:34.157Z,50.40
2018-07-17T10:02:37.425Z,48.10
2018-07-17T10:07:40.713Z,49.90
2018-07-17T10:22:50.029Z,50.60
2018-07-17T10:27:53.285Z,52.20
2018-07-17T10:32:56.609Z,48.50
2018-07-17T10:37:59.877Z,49.30
2018-07-17T10:48:06.628Z,50.10
2018-07-17T10:53:09.881Z,49.70
2018-07-17T10:58:13.529Z,46.30
2018-07-17T11:08:19.975Z,45.40
2018-07-17T11:23:29.114Z,36.60
2018-07-17T11:28:32.385Z,35.70
2018-07-17T11:33:35.760Z,38.50
2018-07-17T11:38:39.647Z,38.60
2018-07-17T11:43:42.921Z,35.80
2018-07-17T11:53:52.143Z,34.70
2018-07-17T11:58:55.477Z,37.60
2018-07-17T12:04:00.559Z,37.60
2018-07-17T12:09:07.706Z,35.40
2018-07-17T12:14:12.982Z,32.20
2018-07-17T12:19:18.722Z,33.40
2018-07-17T12:24:24.264Z,34.80
2018-07-17T12:29:29.464Z,34.60
2018-07-17T12:34:32.858Z,33.10
2018-07-17T12:39:38.597Z,31.30
2018-07-17T12:44:42.489Z,30.40
2018-07-17T12:49:47.945Z,29.20
2018-07-17T12:54:53.198Z,30.40
2018-07-17T12:59:59.012Z,28.00
2018-07-17T13:05:04.032Z,29.50
2018-07-17T13:10:09.563Z,28.20
2018-07-17T13:15:13.292Z,29.90
2018-07-17T13:20:18.432Z,28.80
2018-07-17T13:25:23.447Z,28.40
2018-07-17T13:30:28.648Z,29.30
2018-07-17T13:35:34.784Z,29.30
2018-07-17T13:40:40.055Z,28.50
2018-07-17T13:45:45.308Z,30.00
2018-07-17T13:50:51.095Z,30.90
2018-07-17T13:55:57.997Z,29.50
2018-07-17T14:01:01.533Z,31.00
2018-07-17T14:11:10.463Z,35.00
2018-07-17T14:16:14.539Z,34.20
2018-07-17T14:21:20.879Z,36.40
2018-07-17T14:26:24.287Z,35.20
2018-07-17T14:31:28.080Z,36.60
2018-07-17T14:36:31.360Z,37.50
2018-07-17T14:41:36.924Z,36.10
2018-07-17T14:46:41.989Z,34.10
2018-07-17T14:51:47.313Z,34.80
2018-07-17T14:56:50.738Z,36.60
2018-07-17T15:01:54.025Z,40.00
2018-07-17T15:12:02.276Z,38.00
2018-07-17T15:17:06.206Z,35.40
2018-07-17T15:27:13.407Z,33.80
2018-07-17T15:32:17.420Z,34.00
2018-07-17T15:37:22.104Z,33.60
2018-07-17T15:42:26.042Z,35.10
2018-07-17T15:52:35.303Z,31.40
2018-07-17T15:57:39.627Z,33.30
2018-07-17T16:07:49.349Z,35.20
2018-07-17T16:28:06.764Z,38.30
2018-07-17T16:33:11.786Z,40.50
2018-07-17T16:43:21.101Z,35.40
2018-07-17T16:53:30.418Z,43.00
2018-07-17T16:58:35.088Z,45.20
2018-07-17T17:03:38.404Z,46.20
2018-07-17T17:08:43.298Z,47.70
2018-07-17T17:13:46.637Z,43.10
2018-07-17T17:49:12.435Z,53.60
2018-07-17T17:54:16.395Z,53.30
2018-07-17T17:59:22.436Z,51.70
2018-07-17T18:04:27.174Z,52.20
2018-07-17T18:09:32.127Z,50.90
2018-07-17T18:19:40.514Z,52.40
2018-07-17T18:29:47.660Z,53.00
2018-07-17T18:44:59.352Z,56.40
2018-07-17T19:00:08.823Z,58.50
2018-07-17T19:05:12.269Z,59.00
2018-07-17T19:10:15.778Z,59.90
2018-07-17T19:15:19.049Z,60.80
2018-07-17T19:25:25.536Z,64.50
2018-07-17T19:35:32.033Z,67.40
2018-07-17T19:40:35.320Z,68.90
2018-07-17T19:45:38.595Z,69.20
2018-07-17T19:50:41.876Z,68.90
2018-07-17T19:55:45.226Z,68.50
2018-07-17T20:00:48.503Z,67.60
2018-07-17T20:10:54.912Z,64.40
2018-07-17T20:15:58.784Z,62.20
2018-07-17T20:21:02.276Z,61.40
2018-07-17T20:31:09.743Z,60.50
2018-07-17T21:01:35.078Z,65.20
2018-07-17T21:21:48.661Z,69.60
2018-07-17T21:26:52.052Z,70.50
2018-07-17T21:31:55.411Z,71.10
2018-07-17T21:42:02.655Z,72.10
2018-07-17T21:47:06.709Z,72.30
2018-07-17T21:57:13.114Z,73.10
2018-07-17T22:17:28.191Z,75.80
2018-07-17T22:47:48.184Z,76.90
2018-07-17T23:23:13.303Z,83.90
2018-07-17T23:38:23.368Z,86.90
2018-07-17T23:43:27.369Z,87.50
2018-07-17T23:48:30.944Z,88.30
2018-07-17T23:53:34.564Z,88.70
2018-07-17T23:58:38.798Z,90.40
